sensor_id;sensor_type;location;lat;lon;timestamp;temperature;humidity
37322;DHT22;23697;48.684;9.032;2023-07-31T00:00:42;14.20;81.20
37322;DHT22;23697;48.684;9.032;2023-07-31T00:03:08;14.20;81.10
37322;DHT22;23697;48.684;9.032;2023-07-31T00:05:35;14.20;81.00
37322;DHT22;23697;48.684;9.032;2023-07-31T00:08:02;14.10;80.90
37322;DHT22;23697;48.684;9.032;2023-07-31T00:10:30;14.10;80.80
37322;DHT22;23697;48.684;9.032;2023-07-31T00:12:57;14.10;80.90
37322;DHT22;23697;48.684;9.032;2023-07-31T00:15:23;14.10;80.90
37322;DHT22;23697;48.684;9.032;2023-07-31T00:17:50;14.10;80.90
37322;DHT22;23697;48.684;9.032;2023-07-31T00:20:17;14.10;80.80
37322;DHT22;23697;48.684;9.032;2023-07-31T00:22:43;14.20;80.80
37322;DHT22;23697;48.684;9.032;2023-07-31T00:25:09;14.10;80.90
37322;DHT22;23697;48.684;9.032;2023-07-31T00:27:37;14.20;81.00
37322;DHT22;23697;48.684;9.032;2023-07-31T00:30:04;14.20;81.00
37322;DHT22;23697;48.684;9.032;2023-07-31T00:32:31;14.10;81.10
37322;DHT22;23697;48.684;9.032;2023-07-31T00:34:58;14.10;81.00
37322;DHT22;23697;48.684;9.032;2023-07-31T00:37:24;14.10;81.00
37322;DHT22;23697;48.684;9.032;2023-07-31T00:39:51;14.10;80.70
37322;DHT22;23697;48.684;9.032;2023-07-31T00:42:18;14.10;81.10
37322;DHT22;23697;48.684;9.032;2023-07-31T00:44:46;14.20;80.90
37322;DHT22;23697;48.684;9.032;2023-07-31T00:47:13;14.10;80.60
37322;DHT22;23697;48.684;9.032;2023-07-31T00:49:39;14.20;80.90
37322;DHT22;23697;48.684;9.032;2023-07-31T00:52:07;14.10;81.20
37322;DHT22;23697;48.684;9.032;2023-07-31T00:54:33;14.10;81.10
37322;DHT22;23697;48.684;9.032;2023-07-31T00:57:00;14.10;80.80
37322;DHT22;23697;48.684;9.032;2023-07-31T00:59:27;14.20;80.50
37322;DHT22;23697;48.684;9.032;2023-07-31T01:01:55;14.30;79.80
37322;DHT22;23697;48.684;9.032;2023-07-31T01:04:21;14.30;79.70
37322;DHT22;23697;48.684;9.032;2023-07-31T01:06:52;14.20;80.60
37322;DHT22;23697;48.684;9.032;2023-07-31T01:09:23;14.30;80.00
37322;DHT22;23697;48.684;9.032;2023-07-31T01:11:53;14.30;79.70
37322;DHT22;23697;48.684;9.032;2023-07-31T01:14:19;14.20;80.30
37322;DHT22;23697;48.684;9.032;2023-07-31T01:16:46;14.20;80.20
37322;DHT22;23697;48.684;9.032;2023-07-31T01:19:15;14.20;80.00
37322;DHT22;23697;48.684;9.032;2023-07-31T01:21:57;14.30;80.00
37322;DHT22;23697;48.684;9.032;2023-07-31T01:24:28;14.20;80.20
37322;DHT22;23697;48.684;9.032;2023-07-31T01:26:57;14.20;80.10
37322;DHT22;23697;48.684;9.032;2023-07-31T01:29:26;14.20;80.10
37322;DHT22;23697;48.684;9.032;2023-07-31T01:31:56;14.20;80.50
37322;DHT22;23697;48.684;9.032;2023-07-31T01:34:23;14.10;80.60
37322;DHT22;23697;48.684;9.032;2023-07-31T01:36:49;14.10;80.60
37322;DHT22;23697;48.684;9.032;2023-07-31T01:39:16;14.10;80.40
37322;DHT22;23697;48.684;9.032;2023-07-31T01:41:43;14.10;80.40
37322;DHT22;23697;48.684;9.032;2023-07-31T01:44:11;14.10;80.40
37322;DHT22;23697;48.684;9.032;2023-07-31T01:46:38;14.20;80.10
37322;DHT22;23697;48.684;9.032;2023-07-31T01:49:05;14.20;80.10
37322;DHT22;23697;48.684;9.032;2023-07-31T01:51:32;14.20;79.90
37322;DHT22;23697;48.684;9.032;2023-07-31T01:53:59;14.10;80.30
37322;DHT22;23697;48.684;9.032;2023-07-31T01:56:26;14.10;80.20
37322;DHT22;23697;48.684;9.032;2023-07-31T01:58:52;14.10;80.00
37322;DHT22;23697;48.684;9.032;2023-07-31T02:01:21;14.10;80.30
37322;DHT22;23697;48.684;9.032;2023-07-31T02:03:47;14.10;80.50
37322;DHT22;23697;48.684;9.032;2023-07-31T02:06:14;14.10;80.40
37322;DHT22;23697;48.684;9.032;2023-07-31T02:08:41;14.10;80.70
37322;DHT22;23697;48.684;9.032;2023-07-31T02:11:07;14.00;80.70
37322;DHT22;23697;48.684;9.032;2023-07-31T02:13:34;14.00;80.70
37322;DHT22;23697;48.684;9.032;2023-07-31T02:16:01;14.00;80.50
37322;DHT22;23697;48.684;9.032;2023-07-31T02:18:29;14.00;80.80
37322;DHT22;23697;48.684;9.032;2023-07-31T02:20:55;13.90;80.90
37322;DHT22;23697;48.684;9.032;2023-07-31T02:23:22;13.90;81.00
37322;DHT22;23697;48.684;9.032;2023-07-31T02:25:49;14.10;80.30
37322;DHT22;23697;48.684;9.032;2023-07-31T02:28:17;14.10;80.40
37322;DHT22;23697;48.684;9.032;2023-07-31T02:30:44;14.10;80.30
37322;DHT22;23697;48.684;9.032;2023-07-31T02:33:10;14.00;80.50
37322;DHT22;23697;48.684;9.032;2023-07-31T02:35:42;14.10;80.50
37322;DHT22;23697;48.684;9.032;2023-07-31T02:38:12;14.00;80.70
37322;DHT22;23697;48.684;9.032;2023-07-31T02:40:39;14.00;80.40
37322;DHT22;23697;48.684;9.032;2023-07-31T02:43:06;14.00;80.30
37322;DHT22;23697;48.684;9.032;2023-07-31T02:45:36;14.10;79.60
37322;DHT22;23697;48.684;9.032;2023-07-31T02:48:03;14.10;79.70
37322;DHT22;23697;48.684;9.032;2023-07-31T02:50:29;14.10;79.70
37322;DHT22;23697;48.684;9.032;2023-07-31T02:52:58;14.10;79.80
37322;DHT22;23697;48.684;9.032;2023-07-31T02:55:25;14.10;79.60
37322;DHT22;23697;48.684;9.032;2023-07-31T02:57:52;14.10;79.50
37322;DHT22;23697;48.684;9.032;2023-07-31T03:00:20;14.10;79.20
37322;DHT22;23697;48.684;9.032;2023-07-31T03:02:47;14.10;79.20
37322;DHT22;23697;48.684;9.032;2023-07-31T03:05:14;14.10;79.00
37322;DHT22;23697;48.684;9.032;2023-07-31T03:07:41;14.10;79.30
37322;DHT22;23697;48.684;9.032;2023-07-31T03:10:09;14.10;79.30
37322;DHT22;23697;48.684;9.032;2023-07-31T03:12:36;14.00;79.60
37322;DHT22;23697;48.684;9.032;2023-07-31T03:15:04;14.10;79.50
37322;DHT22;23697;48.684;9.032;2023-07-31T03:17:31;14.00;79.30
37322;DHT22;23697;48.684;9.032;2023-07-31T03:19:58;14.10;79.10
37322;DHT22;23697;48.684;9.032;2023-07-31T03:22:24;14.10;78.70
37322;DHT22;23697;48.684;9.032;2023-07-31T03:24:51;14.10;79.00
37322;DHT22;23697;48.684;9.032;2023-07-31T03:27:19;14.10;79.00
37322;DHT22;23697;48.684;9.032;2023-07-31T03:29:46;14.10;79.30
37322;DHT22;23697;48.684;9.032;2023-07-31T03:32:15;14.10;78.70
37322;DHT22;23697;48.684;9.032;2023-07-31T03:34:41;14.10;78.00
37322;DHT22;23697;48.684;9.032;2023-07-31T03:37:08;14.20;78.70
37322;DHT22;23697;48.684;9.032;2023-07-31T03:39:35;14.10;78.50
37322;DHT22;23697;48.684;9.032;2023-07-31T03:42:01;14.10;78.60
37322;DHT22;23697;48.684;9.032;2023-07-31T03:44:30;14.20;78.30
37322;DHT22;23697;48.684;9.032;2023-07-31T03:46:56;14.20;78.60
37322;DHT22;23697;48.684;9.032;2023-07-31T03:49:23;14.20;78.30
37322;DHT22;23697;48.684;9.032;2023-07-31T03:51:50;14.20;78.40
37322;DHT22;23697;48.684;9.032;2023-07-31T03:54:16;14.20;78.90
37322;DHT22;23697;48.684;9.032;2023-07-31T03:56:43;14.30;78.70
37322;DHT22;23697;48.684;9.032;2023-07-31T03:59:10;14.40;78.20
37322;DHT22;23697;48.684;9.032;2023-07-31T04:01:38;14.40;78.60
37322;DHT22;23697;48.684;9.032;2023-07-31T04:04:04;14.40;78.20
37322;DHT22;23697;48.684;9.032;2023-07-31T04:06:31;14.50;77.90
37322;DHT22;23697;48.684;9.032;2023-07-31T04:08:58;14.60;77.70
37322;DHT22;23697;48.684;9.032;2023-07-31T04:11:25;14.60;78.10
37322;DHT22;23697;48.684;9.032;2023-07-31T04:13:52;14.60;77.80
37322;DHT22;23697;48.684;9.032;2023-07-31T04:16:18;14.60;77.40
37322;DHT22;23697;48.684;9.032;2023-07-31T04:18:46;14.60;77.80
37322;DHT22;23697;48.684;9.032;2023-07-31T04:21:13;14.70;77.00
37322;DHT22;23697;48.684;9.032;2023-07-31T04:23:40;14.70;77.20
37322;DHT22;23697;48.684;9.032;2023-07-31T04:26:07;14.60;77.80
37322;DHT22;23697;48.684;9.032;2023-07-31T04:28:33;14.60;77.40
37322;DHT22;23697;48.684;9.032;2023-07-31T04:31:00;14.70;77.30
37322;DHT22;23697;48.684;9.032;2023-07-31T04:33:26;14.70;77.70
37322;DHT22;23697;48.684;9.032;2023-07-31T04:35:55;14.60;78.10
37322;DHT22;23697;48.684;9.032;2023-07-31T04:38:21;14.70;77.50
37322;DHT22;23697;48.684;9.032;2023-07-31T04:40:48;14.70;77.70
37322;DHT22;23697;48.684;9.032;2023-07-31T04:43:15;14.70;77.60
37322;DHT22;23697;48.684;9.032;2023-07-31T04:45:42;14.70;78.10
37322;DHT22;23697;48.684;9.032;2023-07-31T04:48:09;14.80;77.80
37322;DHT22;23697;48.684;9.032;2023-07-31T04:50:36;14.80;78.20
37322;DHT22;23697;48.684;9.032;2023-07-31T04:53:04;14.80;78.20
37322;DHT22;23697;48.684;9.032;2023-07-31T04:55:32;14.80;77.50
37322;DHT22;23697;48.684;9.032;2023-07-31T04:58:01;14.90;77.30
37322;DHT22;23697;48.684;9.032;2023-07-31T05:00:27;14.80;77.70
37322;DHT22;23697;48.684;9.032;2023-07-31T05:02:58;14.90;77.50
37322;DHT22;23697;48.684;9.032;2023-07-31T05:05:25;14.90;77.40
37322;DHT22;23697;48.684;9.032;2023-07-31T05:07:52;14.90;77.20
37322;DHT22;23697;48.684;9.032;2023-07-31T05:10:23;14.90;76.90
37322;DHT22;23697;48.684;9.032;2023-07-31T05:12:53;15.00;76.90
37322;DHT22;23697;48.684;9.032;2023-07-31T05:15:22;15.00;76.90
37322;DHT22;23697;48.684;9.032;2023-07-31T05:17:48;15.10;76.60
37322;DHT22;23697;48.684;9.032;2023-07-31T05:20:15;15.10;76.90
37322;DHT22;23697;48.684;9.032;2023-07-31T05:22:42;15.10;76.80
37322;DHT22;23697;48.684;9.032;2023-07-31T05:25:11;15.10;76.30
37322;DHT22;23697;48.684;9.032;2023-07-31T05:27:39;15.10;76.70
37322;DHT22;23697;48.684;9.032;2023-07-31T05:30:08;15.10;77.10
37322;DHT22;23697;48.684;9.032;2023-07-31T05:32:38;15.10;77.20
37322;DHT22;23697;48.684;9.032;2023-07-31T05:35:05;15.10;77.40
37322;DHT22;23697;48.684;9.032;2023-07-31T05:37:32;15.10;77.00
37322;DHT22;23697;48.684;9.032;2023-07-31T05:39:58;15.20;77.30
37322;DHT22;23697;48.684;9.032;2023-07-31T05:42:25;15.30;77.00
37322;DHT22;23697;48.684;9.032;2023-07-31T05:44:54;15.30;76.70
37322;DHT22;23697;48.684;9.032;2023-07-31T05:47:26;15.50;77.00
37322;DHT22;23697;48.684;9.032;2023-07-31T05:49:56;15.50;76.90
37322;DHT22;23697;48.684;9.032;2023-07-31T05:52:25;15.60;76.90
37322;DHT22;23697;48.684;9.032;2023-07-31T05:54:56;15.70;77.10
37322;DHT22;23697;48.684;9.032;2023-07-31T05:57:33;15.80;75.90
37322;DHT22;23697;48.684;9.032;2023-07-31T06:00:05;15.80;76.00
37322;DHT22;23697;48.684;9.032;2023-07-31T06:05:54;16.00;76.20
37322;DHT22;23697;48.684;9.032;2023-07-31T06:08:14;16.00;76.00
37322;DHT22;23697;48.684;9.032;2023-07-31T06:10:47;16.10;75.80
37322;DHT22;23697;48.684;9.032;2023-07-31T06:13:14;16.10;75.50
37322;DHT22;23697;48.684;9.032;2023-07-31T06:15:45;16.10;75.10
37322;DHT22;23697;48.684;9.032;2023-07-31T06:18:15;16.10;75.40
37322;DHT22;23697;48.684;9.032;2023-07-31T06:20:50;16.20;75.70
37322;DHT22;23697;48.684;9.032;2023-07-31T06:23:30;16.30;75.40
37322;DHT22;23697;48.684;9.032;2023-07-31T06:25:59;16.40;75.20
37322;DHT22;23697;48.684;9.032;2023-07-31T06:28:31;16.40;74.50
37322;DHT22;23697;48.684;9.032;2023-07-31T06:30:59;16.50;74.60
37322;DHT22;23697;48.684;9.032;2023-07-31T06:33:32;16.60;74.60
37322;DHT22;23697;48.684;9.032;2023-07-31T06:36:06;16.70;73.70
37322;DHT22;23697;48.684;9.032;2023-07-31T06:38:33;16.80;74.70
37322;DHT22;23697;48.684;9.032;2023-07-31T06:40:59;16.90;72.50
37322;DHT22;23697;48.684;9.032;2023-07-31T06:43:35;17.00;72.90
37322;DHT22;23697;48.684;9.032;2023-07-31T06:46:05;17.10;73.20
37322;DHT22;23697;48.684;9.032;2023-07-31T06:48:38;17.10;72.90
37322;DHT22;23697;48.684;9.032;2023-07-31T06:51:07;17.20;71.90
37322;DHT22;23697;48.684;9.032;2023-07-31T06:53:36;17.30;71.90
37322;DHT22;23697;48.684;9.032;2023-07-31T06:56:06;17.40;71.20
37322;DHT22;23697;48.684;9.032;2023-07-31T06:58:33;17.40;71.40
37322;DHT22;23697;48.684;9.032;2023-07-31T07:01:00;17.40;72.10
37322;DHT22;23697;48.684;9.032;2023-07-31T07:03:28;17.50;69.70
37322;DHT22;23697;48.684;9.032;2023-07-31T07:05:57;17.50;71.10
37322;DHT22;23697;48.684;9.032;2023-07-31T07:08:24;17.60;70.50
37322;DHT22;23697;48.684;9.032;2023-07-31T07:10:51;17.60;70.70
37322;DHT22;23697;48.684;9.032;2023-07-31T07:13:19;17.80;70.90
37322;DHT22;23697;48.684;9.032;2023-07-31T07:15:47;17.90;70.10
37322;DHT22;23697;48.684;9.032;2023-07-31T07:18:14;17.90;68.70
37322;DHT22;23697;48.684;9.032;2023-07-31T07:20:46;18.00;68.70
37322;DHT22;23697;48.684;9.032;2023-07-31T07:23:13;18.10;68.70
37322;DHT22;23697;48.684;9.032;2023-07-31T07:25:39;18.20;67.10
37322;DHT22;23697;48.684;9.032;2023-07-31T07:28:06;18.20;67.40
37322;DHT22;23697;48.684;9.032;2023-07-31T07:30:32;18.30;67.10
37322;DHT22;23697;48.684;9.032;2023-07-31T07:32:59;18.30;67.60
37322;DHT22;23697;48.684;9.032;2023-07-31T07:35:30;18.10;67.50
37322;DHT22;23697;48.684;9.032;2023-07-31T07:38:13;18.10;67.30
37322;DHT22;23697;48.684;9.032;2023-07-31T07:40:41;18.10;68.20
37322;DHT22;23697;48.684;9.032;2023-07-31T07:43:23;18.20;68.60
37322;DHT22;23697;48.684;9.032;2023-07-31T07:46:06;18.30;67.20
37322;DHT22;23697;48.684;9.032;2023-07-31T07:48:35;18.40;65.80
37322;DHT22;23697;48.684;9.032;2023-07-31T07:51:03;18.40;66.10
37322;DHT22;23697;48.684;9.032;2023-07-31T07:59:10;18.90;65.40
37322;DHT22;23697;48.684;9.032;2023-07-31T08:01:40;19.20;64.90
37322;DHT22;23697;48.684;9.032;2023-07-31T08:04:07;19.50;64.80
37322;DHT22;23697;48.684;9.032;2023-07-31T08:06:38;19.70;63.60
37322;DHT22;23697;48.684;9.032;2023-07-31T08:09:21;19.90;63.20
37322;DHT22;23697;48.684;9.032;2023-07-31T08:11:52;20.00;61.70
37322;DHT22;23697;48.684;9.032;2023-07-31T08:14:23;20.00;60.90
37322;DHT22;23697;48.684;9.032;2023-07-31T08:16:49;20.10;61.20
37322;DHT22;23697;48.684;9.032;2023-07-31T08:19:16;20.20;59.30
37322;DHT22;23697;48.684;9.032;2023-07-31T08:21:54;20.20;61.70
37322;DHT22;23697;48.684;9.032;2023-07-31T08:24:21;20.40;59.30
37322;DHT22;23697;48.684;9.032;2023-07-31T08:26:55;20.70;60.10
37322;DHT22;23697;48.684;9.032;2023-07-31T08:29:24;20.70;57.00
37322;DHT22;23697;48.684;9.032;2023-07-31T08:31:54;21.10;57.20
37322;DHT22;23697;48.684;9.032;2023-07-31T08:34:20;21.10;56.40
37322;DHT22;23697;48.684;9.032;2023-07-31T08:36:50;21.30;56.40
37322;DHT22;23697;48.684;9.032;2023-07-31T08:39:21;21.40;57.00
37322;DHT22;23697;48.684;9.032;2023-07-31T08:42:09;21.60;58.40
37322;DHT22;23697;48.684;9.032;2023-07-31T08:47:26;21.60;55.30
37322;DHT22;23697;48.684;9.032;2023-07-31T08:49:53;21.30;55.80
37322;DHT22;23697;48.684;9.032;2023-07-31T08:52:21;21.00;58.00
37322;DHT22;23697;48.684;9.032;2023-07-31T08:54:50;20.90;58.80
37322;DHT22;23697;48.684;9.032;2023-07-31T08:57:17;20.80;59.80
37322;DHT22;23697;48.684;9.032;2023-07-31T08:59:44;20.60;59.70
37322;DHT22;23697;48.684;9.032;2023-07-31T09:02:20;20.50;58.80
37322;DHT22;23697;48.684;9.032;2023-07-31T09:07:47;20.30;61.30
37322;DHT22;23697;48.684;9.032;2023-07-31T09:10:13;20.10;60.00
37322;DHT22;23697;48.684;9.032;2023-07-31T09:12:40;20.10;62.10
37322;DHT22;23697;48.684;9.032;2023-07-31T09:15:07;20.10;61.80
37322;DHT22;23697;48.684;9.032;2023-07-31T09:17:35;20.30;62.50
37322;DHT22;23697;48.684;9.032;2023-07-31T09:20:12;20.70;59.10
37322;DHT22;23697;48.684;9.032;2023-07-31T09:22:39;20.90;58.50
37322;DHT22;23697;48.684;9.032;2023-07-31T09:25:15;21.20;58.60
37322;DHT22;23697;48.684;9.032;2023-07-31T09:27:46;21.20;59.20
37322;DHT22;23697;48.684;9.032;2023-07-31T09:30:12;21.00;56.70
37322;DHT22;23697;48.684;9.032;2023-07-31T09:32:39;21.00;60.60
37322;DHT22;23697;48.684;9.032;2023-07-31T09:35:13;21.00;59.50
37322;DHT22;23697;48.684;9.032;2023-07-31T09:37:39;20.70;58.60
37322;DHT22;23697;48.684;9.032;2023-07-31T09:40:06;20.60;57.80
37322;DHT22;23697;48.684;9.032;2023-07-31T09:42:35;20.60;59.10
37322;DHT22;23697;48.684;9.032;2023-07-31T09:45:06;20.60;58.20
37322;DHT22;23697;48.684;9.032;2023-07-31T09:47:33;20.60;58.60
37322;DHT22;23697;48.684;9.032;2023-07-31T09:50:00;20.70;58.80
37322;DHT22;23697;48.684;9.032;2023-07-31T09:52:26;20.90;57.20
37322;DHT22;23697;48.684;9.032;2023-07-31T09:54:53;21.00;60.00
37322;DHT22;23697;48.684;9.032;2023-07-31T09:57:21;20.80;58.70
37322;DHT22;23697;48.684;9.032;2023-07-31T09:59:49;20.90;60.10
37322;DHT22;23697;48.684;9.032;2023-07-31T10:02:20;21.10;59.00
37322;DHT22;23697;48.684;9.032;2023-07-31T10:04:47;21.60;58.00
37322;DHT22;23697;48.684;9.032;2023-07-31T10:07:16;21.70;57.30
37322;DHT22;23697;48.684;9.032;2023-07-31T10:09:43;21.70;55.40
37322;DHT22;23697;48.684;9.032;2023-07-31T10:12:11;21.90;55.90
37322;DHT22;23697;48.684;9.032;2023-07-31T10:14:40;21.90;54.70
37322;DHT22;23697;48.684;9.032;2023-07-31T10:17:09;22.20;56.90
37322;DHT22;23697;48.684;9.032;2023-07-31T10:19:36;22.60;56.10
37322;DHT22;23697;48.684;9.032;2023-07-31T10:22:03;22.70;56.10
37322;DHT22;23697;48.684;9.032;2023-07-31T10:24:30;22.50;53.80
37322;DHT22;23697;48.684;9.032;2023-07-31T10:26:57;22.40;54.40
37322;DHT22;23697;48.684;9.032;2023-07-31T10:29:24;22.30;53.40
37322;DHT22;23697;48.684;9.032;2023-07-31T10:31:51;22.70;54.50
37322;DHT22;23697;48.684;9.032;2023-07-31T10:34:20;23.20;53.80
37322;DHT22;23697;48.684;9.032;2023-07-31T10:36:46;23.20;51.40
37322;DHT22;23697;48.684;9.032;2023-07-31T10:39:33;23.30;49.80
37322;DHT22;23697;48.684;9.032;2023-07-31T10:41:59;23.20;50.30
37322;DHT22;23697;48.684;9.032;2023-07-31T10:44:35;23.50;51.70
37322;DHT22;23697;48.684;9.032;2023-07-31T10:47:02;23.60;50.50
37322;DHT22;23697;48.684;9.032;2023-07-31T10:49:30;23.50;50.40
37322;DHT22;23697;48.684;9.032;2023-07-31T10:51:58;23.10;50.00
37322;DHT22;23697;48.684;9.032;2023-07-31T10:54:25;23.00;52.50
37322;DHT22;23697;48.684;9.032;2023-07-31T10:56:53;22.80;52.20
37322;DHT22;23697;48.684;9.032;2023-07-31T10:59:20;22.60;53.50
37322;DHT22;23697;48.684;9.032;2023-07-31T11:01:54;22.70;53.50
37322;DHT22;23697;48.684;9.032;2023-07-31T11:04:22;22.60;54.90
37322;DHT22;23697;48.684;9.032;2023-07-31T11:06:56;22.60;51.40
37322;DHT22;23697;48.684;9.032;2023-07-31T11:09:24;22.40;53.10
37322;DHT22;23697;48.684;9.032;2023-07-31T11:11:50;22.20;52.80
37322;DHT22;23697;48.684;9.032;2023-07-31T11:14:17;22.10;56.10
37322;DHT22;23697;48.684;9.032;2023-07-31T11:16:44;22.10;55.30
37322;DHT22;23697;48.684;9.032;2023-07-31T11:19:11;22.00;54.50
37322;DHT22;23697;48.684;9.032;2023-07-31T11:21:37;22.00;55.30
37322;DHT22;23697;48.684;9.032;2023-07-31T11:24:05;21.90;54.80
37322;DHT22;23697;48.684;9.032;2023-07-31T11:26:32;22.10;57.40
37322;DHT22;23697;48.684;9.032;2023-07-31T11:28:59;22.20;57.00
37322;DHT22;23697;48.684;9.032;2023-07-31T11:31:25;22.10;55.30
37322;DHT22;23697;48.684;9.032;2023-07-31T11:34:03;22.00;55.50
37322;DHT22;23697;48.684;9.032;2023-07-31T11:36:30;21.80;55.70
37322;DHT22;23697;48.684;9.032;2023-07-31T11:39:04;21.80;56.70
37322;DHT22;23697;48.684;9.032;2023-07-31T11:41:32;21.80;56.40
37322;DHT22;23697;48.684;9.032;2023-07-31T11:43:59;21.70;57.10
37322;DHT22;23697;48.684;9.032;2023-07-31T11:46:26;21.60;57.00
37322;DHT22;23697;48.684;9.032;2023-07-31T11:48:55;21.50;57.30
37322;DHT22;23697;48.684;9.032;2023-07-31T11:51:25;21.50;56.40
37322;DHT22;23697;48.684;9.032;2023-07-31T11:53:53;21.50;58.80
37322;DHT22;23697;48.684;9.032;2023-07-31T11:56:21;21.50;57.80
37322;DHT22;23697;48.684;9.032;2023-07-31T11:58:51;21.50;58.20
37322;DHT22;23697;48.684;9.032;2023-07-31T12:01:19;21.40;57.50
37322;DHT22;23697;48.684;9.032;2023-07-31T12:03:47;21.40;58.20
37322;DHT22;23697;48.684;9.032;2023-07-31T12:06:14;21.50;58.30
37322;DHT22;23697;48.684;9.032;2023-07-31T12:08:41;21.40;56.90
37322;DHT22;23697;48.684;9.032;2023-07-31T12:11:08;21.30;57.10
37322;DHT22;23697;48.684;9.032;2023-07-31T12:13:35;21.40;58.50
37322;DHT22;23697;48.684;9.032;2023-07-31T12:16:03;21.40;56.90
37322;DHT22;23697;48.684;9.032;2023-07-31T12:18:33;21.30;57.60
37322;DHT22;23697;48.684;9.032;2023-07-31T13:27:02;23.20;54.30
37322;DHT22;23697;48.684;9.032;2023-07-31T13:29:59;23.10;55.30
37322;DHT22;23697;48.684;9.032;2023-07-31T13:33:05;23.00;55.40
37322;DHT22;23697;48.684;9.032;2023-07-31T13:35:57;22.70;56.90
37322;DHT22;23697;48.684;9.032;2023-07-31T13:38:29;22.80;55.70
37322;DHT22;23697;48.684;9.032;2023-07-31T13:40:57;22.70;56.30
37322;DHT22;23697;48.684;9.032;2023-07-31T13:43:24;22.60;55.70
37322;DHT22;23697;48.684;9.032;2023-07-31T13:45:50;23.10;57.40
37322;DHT22;23697;48.684;9.032;2023-07-31T13:48:19;23.10;57.20
37322;DHT22;23697;48.684;9.032;2023-07-31T13:50:50;23.20;59.10
37322;DHT22;23697;48.684;9.032;2023-07-31T13:53:17;23.10;55.80
37322;DHT22;23697;48.684;9.032;2023-07-31T13:55:43;23.00;56.20
37322;DHT22;23697;48.684;9.032;2023-07-31T13:58:14;22.80;55.80
37322;DHT22;23697;48.684;9.032;2023-07-31T14:00:41;22.70;57.00
37322;DHT22;23697;48.684;9.032;2023-07-31T14:03:08;22.60;58.70
37322;DHT22;23697;48.684;9.032;2023-07-31T14:05:39;22.60;55.70
37322;DHT22;23697;48.684;9.032;2023-07-31T14:08:05;22.50;56.40
37322;DHT22;23697;48.684;9.032;2023-07-31T14:10:32;22.40;57.80
37322;DHT22;23697;48.684;9.032;2023-07-31T14:12:59;22.30;56.50
37322;DHT22;23697;48.684;9.032;2023-07-31T14:15:25;22.20;57.00
37322;DHT22;23697;48.684;9.032;2023-07-31T14:17:57;22.10;55.30
37322;DHT22;23697;48.684;9.032;2023-07-31T14:20:24;22.10;55.00
37322;DHT22;23697;48.684;9.032;2023-07-31T14:22:52;22.10;57.20
37322;DHT22;23697;48.684;9.032;2023-07-31T14:25:21;22.00;55.70
37322;DHT22;23697;48.684;9.032;2023-07-31T14:27:47;21.90;54.20
37322;DHT22;23697;48.684;9.032;2023-07-31T14:30:14;21.80;55.60
37322;DHT22;23697;48.684;9.032;2023-07-31T14:32:43;21.90;55.90
37322;DHT22;23697;48.684;9.032;2023-07-31T14:35:10;22.00;55.70
37322;DHT22;23697;48.684;9.032;2023-07-31T14:37:37;22.00;54.80
37322;DHT22;23697;48.684;9.032;2023-07-31T14:40:08;22.00;55.00
37322;DHT22;23697;48.684;9.032;2023-07-31T14:42:36;22.10;56.00
37322;DHT22;23697;48.684;9.032;2023-07-31T14:45:03;22.10;55.60
37322;DHT22;23697;48.684;9.032;2023-07-31T14:47:32;22.20;54.00
37322;DHT22;23697;48.684;9.032;2023-07-31T14:49:59;22.30;54.70
37322;DHT22;23697;48.684;9.032;2023-07-31T14:52:29;22.30;53.40
37322;DHT22;23697;48.684;9.032;2023-07-31T14:54:55;22.40;54.00
37322;DHT22;23697;48.684;9.032;2023-07-31T14:57:24;22.40;55.10
37322;DHT22;23697;48.684;9.032;2023-07-31T15:00:05;22.50;53.20
37322;DHT22;23697;48.684;9.032;2023-07-31T15:02:33;22.40;53.20
37322;DHT22;23697;48.684;9.032;2023-07-31T15:05:00;22.40;54.70
37322;DHT22;23697;48.684;9.032;2023-07-31T15:07:29;22.30;54.40
37322;DHT22;23697;48.684;9.032;2023-07-31T15:09:56;22.20;54.70
37322;DHT22;23697;48.684;9.032;2023-07-31T15:12:24;22.20;54.60
37322;DHT22;23697;48.684;9.032;2023-07-31T15:14:52;22.10;54.80
37322;DHT22;23697;48.684;9.032;2023-07-31T15:17:18;22.10;55.30
37322;DHT22;23697;48.684;9.032;2023-07-31T15:19:46;22.10;55.40
37322;DHT22;23697;48.684;9.032;2023-07-31T15:22:12;22.10;57.30
37322;DHT22;23697;48.684;9.032;2023-07-31T15:24:39;22.30;56.20
37322;DHT22;23697;48.684;9.032;2023-07-31T15:27:06;22.40;57.30
37322;DHT22;23697;48.684;9.032;2023-07-31T15:29:35;22.50;55.30
37322;DHT22;23697;48.684;9.032;2023-07-31T15:32:03;22.60;56.20
37322;DHT22;23697;48.684;9.032;2023-07-31T15:34:30;22.50;56.30
37322;DHT22;23697;48.684;9.032;2023-07-31T15:36:57;22.60;55.70
37322;DHT22;23697;48.684;9.032;2023-07-31T15:39:23;22.60;57.80
37322;DHT22;23697;48.684;9.032;2023-07-31T15:41:50;22.60;55.80
37322;DHT22;23697;48.684;9.032;2023-07-31T15:44:31;22.60;58.40
37322;DHT22;23697;48.684;9.032;2023-07-31T15:47:03;22.60;58.00
37322;DHT22;23697;48.684;9.032;2023-07-31T15:49:30;22.50;55.50
37322;DHT22;23697;48.684;9.032;2023-07-31T15:51:57;22.40;55.00
37322;DHT22;23697;48.684;9.032;2023-07-31T15:54:24;22.30;53.50
37322;DHT22;23697;48.684;9.032;2023-07-31T15:56:53;22.20;55.00
37322;DHT22;23697;48.684;9.032;2023-07-31T15:59:20;22.30;55.60
37322;DHT22;23697;48.684;9.032;2023-07-31T16:01:47;22.30;56.20
37322;DHT22;23697;48.684;9.032;2023-07-31T16:04:15;22.40;56.30
37322;DHT22;23697;48.684;9.032;2023-07-31T16:13:10;22.60;53.50
37322;DHT22;23697;48.684;9.032;2023-07-31T16:16:04;22.60;55.30
37322;DHT22;23697;48.684;9.032;2023-07-31T16:24:56;22.20;56.40
37322;DHT22;23697;48.684;9.032;2023-07-31T17:24:12;21.00;62.70
37322;DHT22;23697;48.684;9.032;2023-07-31T17:27:03;21.00;62.70
37322;DHT22;23697;48.684;9.032;2023-07-31T17:29:46;21.00;61.90
37322;DHT22;23697;48.684;9.032;2023-07-31T17:32:21;21.00;63.20
37322;DHT22;23697;48.684;9.032;2023-07-31T17:37:49;20.90;64.50
37322;DHT22;23697;48.684;9.032;2023-07-31T17:46:40;20.80;64.70
37322;DHT22;23697;48.684;9.032;2023-07-31T17:49:49;20.80;64.60
37322;DHT22;23697;48.684;9.032;2023-07-31T17:52:36;20.80;64.90
37322;DHT22;23697;48.684;9.032;2023-07-31T17:58:51;20.70;66.50
37322;DHT22;23697;48.684;9.032;2023-07-31T18:01:34;20.60;65.60
37322;DHT22;23697;48.684;9.032;2023-07-31T18:04:11;20.60;65.80
37322;DHT22;23697;48.684;9.032;2023-07-31T18:06:53;20.60;66.30
37322;DHT22;23697;48.684;9.032;2023-07-31T18:09:30;20.60;67.00
37322;DHT22;23697;48.684;9.032;2023-07-31T18:12:04;20.50;67.00
37322;DHT22;23697;48.684;9.032;2023-07-31T18:14:34;20.40;66.40
37322;DHT22;23697;48.684;9.032;2023-07-31T18:17:10;20.40;66.50
37322;DHT22;23697;48.684;9.032;2023-07-31T18:25:54;20.30;66.30
37322;DHT22;23697;48.684;9.032;2023-07-31T18:28:49;20.30;67.60
37322;DHT22;23697;48.684;9.032;2023-07-31T18:31:43;20.20;68.40